Flight Track Log - Related Links

Times and Time Zones

All times are in EDT time to prevent confusion due to time zone crossing. See the N137TK flight status page for this flight to view local times or setup timezone preferences in your user account.


Time Position Orientation Groundspeed Altitude Reporting Facility
EDT Latitude Longitude Course Direction KTS MPH feet Rate Location/Type
Tue 07:00:08 PM 42.2475 -83.5172 325° Northwest 143 165 1,300  Level Cleveland Center
Tue 07:01:03 PM 42.2761 -83.5439 325° Northwest 178 205 3,000 1,624 Climbing Cleveland Center
Tue 07:03:09 PM 42.2517 -83.6803 256° West 186 214 6,200 1,613 Climbing Cleveland Center
Tue 07:04:09 PM 42.2103 -83.6725 172° South 156 180 8,000 1,750 Climbing Cleveland Center
Tue 07:05:09 PM 42.1606 -83.6561 166° South 151 174 9,700 1,800 Climbing Cleveland Center
Tue 07:06:09 PM 42.1153 -83.6317 158° South 170 196 11,600 1,800 Climbing Cleveland Center
Tue 07:07:09 PM 42.0658 -83.6097 162° South 176 203 13,300 1,650 Climbing Cleveland Center
Tue 07:08:09 PM 42.0139 -83.6044 176° South 181 208 14,900 1,600 Climbing Cleveland Center
Tue 07:09:09 PM 41.9594 -83.6214 193° South 192 221 16,500 1,550 Climbing Cleveland Center
Tue 07:10:09 PM 41.9025 -83.6353 190° South 199 229 18,000 1,500 Climbing Cleveland Center
Tue 07:11:09 PM 41.8500 -83.6497 192° South 199 229 19,500 1,350 Climbing Cleveland Center
Tue 07:12:09 PM 41.7956 -83.6636 191° South 199 229 20,700 1,200 Climbing Cleveland Center
Tue 07:13:09 PM 41.7408 -83.6778 191° South 199 229 21,900 1,250 Climbing Cleveland Center
Tue 07:14:09 PM 41.6864 -83.6919 191° South 199 229 23,200 1,150 Climbing Cleveland Center
Tue 07:15:09 PM 41.6317 -83.7058 191° South 199 229 24,200 1,000 Climbing Cleveland Center
Tue 07:16:09 PM 41.5772 -83.7200 191° South 199 229 25,200 900 Climbing Cleveland Center
Tue 07:17:09 PM 41.5206 -83.7339 190° South 199 229 26,000 400 Climbing Cleveland Center
Tue 07:18:09 PM 41.4575 -83.7503 191° South 213 245 26,000  Level Cleveland Center
Tue 07:19:09 PM 41.3881 -83.7689 191° South 237 273 26,000  Level Cleveland Center
Tue 07:20:09 PM 41.3125 -83.7872 190° South 263 303 26,000  Level Cleveland Center
Tue 07:21:09 PM 41.2350 -83.8056 190° South 284 327 26,000  Level Cleveland Center
Tue 07:22:09 PM 41.1531 -83.8264 191° South 289 333 26,000  Level Cleveland Center
Tue 07:23:53 PM 41.0167 -83.8603 191° South 292 336 26,000  Level Indianapolis Center
Tue 07:24:55 PM 40.9369 -83.8811 191° South 289 333 26,000  Level Indianapolis Center
Tue 07:25:57 PM 40.8564 -83.9014 191° South 291 335 26,000  Level Indianapolis Center
Tue 07:26:59 PM 40.7622 -83.9239 190° South 291 335 26,000  Level Indianapolis Center
Tue 07:28:01 PM 40.6842 -83.9056 170° South 282 325 26,000  Level Indianapolis Center
Tue 07:29:03 PM 40.6047 -83.8931 173° South 287 330 26,000  Level Indianapolis Center
Tue 07:30:05 PM 40.5242 -83.8956 181° South 286 329 26,000  Level Indianapolis Center
Tue 07:31:06 PM 40.4433 -83.8983 181° South 288 331 26,000  Level Indianapolis Center
Tue 07:32:08 PM 40.3619 -83.9006 181° South 290 334 26,000  Level Indianapolis Center
Tue 07:33:10 PM 40.2858 -83.8683 162° South 287 330 26,000  Level Indianapolis Center
Tue 07:34:12 PM 40.2108 -83.8378 163° South 282 325 26,000  Level Indianapolis Center
Tue 07:35:14 PM 40.1200 -83.8108 167° South 285 328 26,000  Level Indianapolis Center
Tue 07:36:15 PM 40.0414 -83.7889 168° South 287 330 26,000  Level Indianapolis Center
Tue 07:37:17 PM 39.9631 -83.7664 168° South 288 331 26,000  Level Indianapolis Center
Tue 07:38:19 PM 39.8844 -83.7433 167° South 287 330 26,000  Level Indianapolis Center
Tue 07:39:21 PM 39.8056 -83.7208 168° South 291 335 26,000  Level Indianapolis Center
Tue 07:40:22 PM 39.7258 -83.6981 168° South 293 337 26,000  Level Indianapolis Center
Tue 07:41:24 PM 39.6469 -83.6753 167° South 290 334 26,000  Level Indianapolis Center
Tue 07:42:26 PM 39.5531 -83.6481 167° South 295 339 26,000  Level Indianapolis Center
Tue 07:43:27 PM 39.4706 -83.6250 168° South 299 344 26,000  Level Indianapolis Center
Tue 07:44:29 PM 39.3894 -83.6022 168° South 297 342 26,000  Level Indianapolis Center
Tue 07:45:31 PM 39.3072 -83.5792 168° South 299 344 26,000  Level Indianapolis Center
Tue 07:46:33 PM 39.2269 -83.5553 167° South 297 342 26,000  Level Indianapolis Center
Tue 07:47:34 PM 39.1458 -83.5342 169° South 293 337 26,000  Level Indianapolis Center
Tue 07:48:36 PM 39.0647 -83.5111 168° South 294 338 26,000  Level Indianapolis Center
Tue 07:49:38 PM 38.9833 -83.4883 168° South 296 341 26,000  Level Indianapolis Center
Tue 07:50:40 PM 38.8894 -83.4619 168° South 294 338 26,000  Level Indianapolis Center
Tue 07:51:41 PM 38.8078 -83.4397 168° South 297 342 26,000  Level Indianapolis Center
Tue 07:52:43 PM 38.7253 -83.4150 167° South 300 345 26,000  Level Indianapolis Center
Tue 07:53:45 PM 38.6367 -83.3917 168° South 302 348 26,000  Level Indianapolis Center
Tue 07:54:46 PM 38.5547 -83.3681 167° South 301 346 26,000  Level Indianapolis Center
Tue 07:55:48 PM 38.4722 -83.3456 168° South 304 350 26,000  Level Indianapolis Center
Tue 07:56:49 PM 38.3908 -83.3231 168° South 300 345 26,000  Level Indianapolis Center
Tue 07:57:51 PM 38.3083 -83.3014 168° South 300 345 26,000  Level Indianapolis Center
Tue 07:58:53 PM 38.2272 -83.2769 167° South 300 345 26,000  Level Indianapolis Center
Tue 07:59:54 PM 38.1464 -83.2558 168° South 297 342 26,000  Level Indianapolis Center
Tue 08:00:56 PM 38.0533 -83.2303 168° South 294 338 26,000  Level Indianapolis Center
Tue 08:01:58 PM 37.9719 -83.2092 168° South 296 341 26,000  Level Indianapolis Center
Tue 08:02:59 PM 37.8906 -83.1872 168° South 298 343 26,000  Level Indianapolis Center
Tue 08:04:01 PM 37.8072 -83.1631 167° South 305 351 26,000  Level Indianapolis Center
Tue 08:05:02 PM 37.7231 -83.1408 168° South 308 354 26,000  Level Indianapolis Center
Tue 08:06:04 PM 37.6386 -83.1178 168° South 309 356 26,000 -387 Level Indianapolis Center
Tue 08:07:06 PM 37.5531 -83.0964 169° South 311 358 25,200 -927 Descending Indianapolis Center
Tue 08:08:07 PM 37.4464 -83.0675 168° South 332 382 24,100 -1,024 Descending Indianapolis Center
Tue 08:09:09 PM 37.3561 -83.0431 168° South 333 383 23,100 -537 Descending Indianapolis Center
Tue 08:10:10 PM 37.2700 -83.0200 168° South 318 366 23,000 -49 Descending Indianapolis Center
Tue 08:11:12 PM 37.1878 -82.9981 168° South 305 351 23,000  Level Indianapolis Center
Tue 08:12:14 PM 37.1042 -82.9756 168° South 306 352 23,000  Level Indianapolis Center
Tue 08:13:15 PM 37.0203 -82.9533 168° South 308 354 23,000  Level Indianapolis Center
Tue 08:14:17 PM 36.9383 -82.9328 169° South 307 353 23,000  Level Indianapolis Center
Tue 08:14:57 PM 36.8644 -82.9153 169° South 323 372 23,000  Level Atlanta Center
Tue 08:15:57 PM 36.7786 -82.8933 168° South 323 372 23,000 -550 Level Atlanta Center
Tue 08:16:57 PM 36.6931 -82.8686 167° South 318 366 21,900 -1,059 Descending Atlanta Center
Tue 08:17:22 PM 36.6706 -82.8608 165° South 318 366 21,500 -1,200 Descending Indianapolis Center
Tue 08:17:57 PM 36.6053 -82.8467 170° South 318 366 20,700 -1,263 Descending Atlanta Center
Tue 08:18:57 PM 36.5153 -82.8219 168° South 323 372 19,500 -1,250 Descending Atlanta Center
Tue 08:19:57 PM 36.4275 -82.8003 169° South 328 377 18,200 -1,300 Descending Atlanta Center
Tue 08:20:57 PM 36.3397 -82.7758 167° South 328 377 16,900 -1,300 Descending Atlanta Center
Tue 08:21:57 PM 36.2497 -82.7542 169° South 335 386 15,600 -1,300 Descending Atlanta Center
Tue 08:22:57 PM 36.1619 -82.7297 167° South 335 386 14,300 -1,350 Descending Atlanta Center
Tue 08:23:57 PM 36.0761 -82.7081 168° South 329 379 12,900 -1,350 Descending Atlanta Center
Tue 08:24:57 PM 35.9903 -82.6864 168° South 324 373 11,600 -1,300 Descending Atlanta Center
Tue 08:25:57 PM 35.9086 -82.6644 168° South 312 359 10,300 -1,250 Descending Atlanta Center
Tue 08:26:57 PM 35.8392 -82.6119 148° Southeast 299 344 9,100 -1,150 Descending Atlanta Center
Tue 08:27:57 PM 35.7719 -82.5594 148° Southeast 293 337 8,000 -900 Descending Atlanta Center
Tue 08:28:57 PM 35.7069 -82.5325 161° South 280 322 7,300 -500 Descending Atlanta Center
Tue 08:29:57 PM 35.6356 -82.5056 163° South 280 322 7,000 -450 Descending Atlanta Center
Tue 08:30:57 PM 35.5708 -82.4839 165° South 256 295 6,400 -700 Descending Atlanta Center
Tue 08:31:57 PM 35.4953 -82.4622 167° South 250 288 5,600 -800 Descending Atlanta Center

Login

Don't have an account? Register now (free) for customized features, flight alerts, and more!